DLH323 LICJ-EDDF
Flight info
| Callsign | DLH323 |
|---|---|
| Flight time | N/A |
| Altitude | 36000 |
| Route | LURON DCT DORAS DCT NIKMA DCT UNIMI L12 MOGTI Q163 OLASO/N0434F320 Q163 HAFUN/N0388F240 Q163 ETASA T163 SPESA SPESA5C |
| Aircraft | A321/M-SDE3FGHIRWY/LB1 |
Departure
| Time | 2026-05-01 12:51 |
|---|---|
| Airport | Falcone–Borsellino Airport (LICJ) |
Arrival
| Time | N/A |
|---|---|
| Airport | Frankfurt Main Airport (EDDF) |
| Time | Latitude | Longitude | Altitude | Speed | Heading |
|---|---|---|---|---|---|
| 2026-05-01 12:10 | 38.18549 | 13.10608 | 58 ft | 0 kts | 336° |
| 2026-05-01 12:33 | 38.18548 | 13.10609 | 65 ft | 2 kts | 336° |
| 2026-05-01 12:33 | 38.18525 | 13.10620 | 59 ft | 4 kts | 345° |
| 2026-05-01 12:34 | 38.18498 | 13.10626 | 61 ft | 4 kts | 2° |
| 2026-05-01 12:34 | 38.18475 | 13.10618 | 59 ft | 4 kts | 49° |
| 2026-05-01 12:34 | 38.18470 | 13.10610 | 57 ft | 0 kts | 68° |
| 2026-05-01 12:37 | 38.18471 | 13.10615 | 58 ft | 3 kts | 68° |
| 2026-05-01 12:37 | 38.18483 | 13.10650 | 61 ft | 5 kts | 68° |
| 2026-05-01 12:37 | 38.18498 | 13.10695 | 58 ft | 1 kts | 67° |
| 2026-05-01 12:38 | 38.18500 | 13.10702 | 59 ft | 2 kts | 67° |
| 2026-05-01 12:38 | 38.18501 | 13.10768 | 65 ft | 12 kts | 106° |
| 2026-05-01 12:38 | 38.18472 | 13.10881 | 59 ft | 14 kts | 108° |
| 2026-05-01 12:38 | 38.18407 | 13.10931 | 61 ft | 8 kts | 204° |
| 2026-05-01 12:39 | 38.18385 | 13.10877 | 58 ft | 8 kts | 249° |
| 2026-05-01 12:39 | 38.18362 | 13.10806 | 61 ft | 10 kts | 247° |
| 2026-05-01 12:39 | 38.18339 | 13.10735 | 62 ft | 5 kts | 247° |
| 2026-05-01 12:39 | 38.18325 | 13.10693 | 63 ft | 0 kts | 247° |
| 2026-05-01 12:40 | 38.18324 | 13.10693 | 63 ft | 1 kts | 247° |
| 2026-05-01 12:40 | 38.18319 | 13.10676 | 60 ft | 5 kts | 247° |
| 2026-05-01 12:40 | 38.18294 | 13.10601 | 62 ft | 13 kts | 247° |
| 2026-05-01 12:40 | 38.18248 | 13.10465 | 61 ft | 19 kts | 248° |
| 2026-05-01 12:41 | 38.18194 | 13.10304 | 63 ft | 20 kts | 246° |
| 2026-05-01 12:41 | 38.18137 | 13.10134 | 62 ft | 21 kts | 247° |
| 2026-05-01 12:41 | 38.18077 | 13.09959 | 61 ft | 22 kts | 246° |
| 2026-05-01 12:41 | 38.18016 | 13.09777 | 60 ft | 23 kts | 247° |
| 2026-05-01 12:42 | 38.17950 | 13.09585 | 63 ft | 24 kts | 246° |
| 2026-05-01 12:42 | 38.17884 | 13.09388 | 63 ft | 24 kts | 247° |
| 2026-05-01 12:42 | 38.17822 | 13.09202 | 68 ft | 23 kts | 247° |
| 2026-05-01 12:42 | 38.17753 | 13.08996 | 58 ft | 26 kts | 245° |
| 2026-05-01 12:43 | 38.17700 | 13.08917 | 62 ft | 7 kts | 218° |
| 2026-05-01 12:43 | 38.17660 | 13.08879 | 63 ft | 0 kts | 216° |
| 2026-05-01 12:48 | 38.17646 | 13.08866 | 61 ft | 7 kts | 216° |
| 2026-05-01 12:48 | 38.17628 | 13.08849 | 62 ft | 0 kts | 217° |
| 2026-05-01 12:49 | 38.17627 | 13.08848 | 62 ft | 1 kts | 217° |
| 2026-05-01 12:49 | 38.17621 | 13.08841 | 64 ft | 0 kts | 217° |
| 2026-05-01 12:49 | 38.17620 | 13.08841 | 64 ft | 1 kts | 217° |
| 2026-05-01 12:49 | 38.17588 | 13.08810 | 64 ft | 11 kts | 217° |
| 2026-05-01 12:50 | 38.17502 | 13.08763 | 67 ft | 15 kts | 153° |
| 2026-05-01 12:50 | 38.17514 | 13.08889 | 67 ft | 22 kts | 66° |
| 2026-05-01 12:50 | 38.17657 | 13.09316 | 69 ft | 88 kts | 67° |
| 2026-05-01 12:50 | 38.17987 | 13.10291 | 65 ft | 149 kts | 66° |
| 2026-05-01 12:51 | 38.18411 | 13.11568 | 599 ft | 159 kts | 66° |
| 2026-05-01 12:51 | 38.18844 | 13.12882 | 1312 ft | 166 kts | 66° |
| 2026-05-01 12:51 | 38.19834 | 13.15861 | 2061 ft | 198 kts | 65° |
| 2026-05-01 12:52 | 38.20413 | 13.17535 | 2312 ft | 218 kts | 65° |
| 2026-05-01 12:52 | 38.22596 | 13.20503 | 3199 ft | 252 kts | 22° |
| 2026-05-01 12:52 | 38.24226 | 13.21331 | 4103 ft | 252 kts | 23° |
| 2026-05-01 12:53 | 38.27454 | 13.23061 | 5857 ft | 254 kts | 21° |
| 2026-05-01 12:53 | 38.29107 | 13.23936 | 6612 ft | 261 kts | 21° |
| 2026-05-01 12:53 | 38.30792 | 13.24830 | 7330 ft | 265 kts | 19° |
| 2026-05-01 12:54 | 38.32498 | 13.25737 | 8083 ft | 267 kts | 20° |
| 2026-05-01 12:54 | 38.35980 | 13.27590 | 9545 ft | 274 kts | 19° |
| 2026-05-01 12:54 | 38.37749 | 13.28531 | 10300 ft | 277 kts | 19° |
| 2026-05-01 12:55 | 38.41737 | 13.29681 | 10669 ft | 313 kts | 358° |
| 2026-05-01 12:55 | 38.43924 | 13.29395 | 11135 ft | 319 kts | 346° |
| 2026-05-01 12:55 | 38.46053 | 13.28573 | 11766 ft | 320 kts | 340° |
| 2026-05-01 12:56 | 38.48175 | 13.27671 | 12442 ft | 323 kts | 340° |
| 2026-05-01 12:56 | 38.50311 | 13.26764 | 13103 ft | 325 kts | 340° |
| 2026-05-01 12:56 | 38.52467 | 13.25849 | 13767 ft | 327 kts | 340° |
| 2026-05-01 12:56 | 38.54638 | 13.24928 | 14375 ft | 330 kts | 339° |
| 2026-05-01 12:57 | 38.56822 | 13.24000 | 14961 ft | 332 kts | 339° |
| 2026-05-01 12:57 | 38.61235 | 13.22120 | 16156 ft | 336 kts | 338° |
| 2026-05-01 12:57 | 38.63461 | 13.21170 | 16743 ft | 338 kts | 338° |
| 2026-05-01 12:58 | 38.65700 | 13.20218 | 17334 ft | 340 kts | 338° |
| 2026-05-01 12:58 | 38.67953 | 13.19259 | 17901 ft | 342 kts | 338° |
| 2026-05-01 12:58 | 38.70220 | 13.18290 | 18459 ft | 345 kts | 337° |
| 2026-05-01 12:59 | 38.74703 | 13.16366 | 19432 ft | 348 kts | 337° |
| 2026-05-01 12:59 | 38.77069 | 13.15356 | 19935 ft | 350 kts | 337° |
| 2026-05-01 12:59 | 38.81708 | 13.13379 | 20889 ft | 353 kts | 336° |
| 2026-05-01 13:00 | 38.86431 | 13.11601 | 21934 ft | 359 kts | 345° |
| 2026-05-01 13:00 | 38.88946 | 13.11330 | 22410 ft | 364 kts | 349° |
| 2026-05-01 13:01 | 38.94020 | 13.10960 | 23332 ft | 367 kts | 349° |
| 2026-05-01 13:01 | 38.96576 | 13.10777 | 23766 ft | 369 kts | 349° |
| 2026-05-01 13:01 | 39.01732 | 13.10397 | 24467 ft | 373 kts | 348° |
| 2026-05-01 13:02 | 39.04332 | 13.10201 | 24811 ft | 375 kts | 348° |
| 2026-05-01 13:07 | 39.62246 | 13.05441 | 31161 ft | 409 kts | 342° |
| 2026-05-01 13:07 | 39.65038 | 13.04762 | 31436 ft | 408 kts | 342° |
| 2026-05-01 13:07 | 39.67788 | 13.04099 | 31720 ft | 407 kts | 343° |
| 2026-05-01 13:08 | 39.70570 | 13.03428 | 32002 ft | 406 kts | 343° |
| 2026-05-01 13:08 | 39.73344 | 13.02760 | 32276 ft | 405 kts | 343° |
| 2026-05-01 13:08 | 39.76112 | 13.02093 | 32606 ft | 404 kts | 344° |
| 2026-05-01 13:08 | 39.78876 | 13.01425 | 32899 ft | 403 kts | 344° |
| 2026-05-01 13:09 | 39.81626 | 13.00759 | 33189 ft | 402 kts | 344° |
| 2026-05-01 13:09 | 39.84369 | 13.00095 | 33478 ft | 401 kts | 344° |
| 2026-05-01 13:09 | 39.87107 | 12.99436 | 33760 ft | 400 kts | 344° |
| 2026-05-01 13:09 | 39.89837 | 12.98776 | 34037 ft | 399 kts | 344° |
| 2026-05-01 13:10 | 39.92559 | 12.98114 | 34304 ft | 398 kts | 344° |
| 2026-05-01 13:10 | 39.95276 | 12.97453 | 34525 ft | 397 kts | 344° |
| 2026-05-01 13:10 | 39.97997 | 12.96789 | 34713 ft | 398 kts | 344° |
| 2026-05-01 13:10 | 40.00715 | 12.96126 | 34899 ft | 398 kts | 344° |
| 2026-05-01 13:11 | 40.03443 | 12.95462 | 35080 ft | 399 kts | 345° |
| 2026-05-01 13:11 | 40.06172 | 12.94800 | 35264 ft | 399 kts | 344° |
| 2026-05-01 13:11 | 40.08907 | 12.94132 | 35452 ft | 400 kts | 344° |
| 2026-05-01 13:11 | 40.11637 | 12.93463 | 35631 ft | 400 kts | 344° |
| 2026-05-01 13:12 | 40.14377 | 12.92793 | 35823 ft | 401 kts | 344° |
| 2026-05-01 13:12 | 40.17119 | 12.92124 | 36003 ft | 401 kts | 344° |
| 2026-05-01 13:12 | 40.19864 | 12.91452 | 36196 ft | 402 kts | 345° |
| 2026-05-01 13:13 | 40.25343 | 12.90106 | 36223 ft | 400 kts | 345° |
| 2026-05-01 13:13 | 40.30805 | 12.88762 | 36226 ft | 399 kts | 345° |
| 2026-05-01 13:14 | 40.36265 | 12.87417 | 36223 ft | 399 kts | 345° |
| 2026-05-01 13:14 | 40.41726 | 12.86074 | 36248 ft | 399 kts | 345° |
| 2026-05-01 13:15 | 40.47196 | 12.84724 | 36229 ft | 400 kts | 345° |
| 2026-05-01 13:15 | 40.52679 | 12.83368 | 36229 ft | 401 kts | 345° |
| 2026-05-01 13:16 | 40.58167 | 12.82014 | 36239 ft | 402 kts | 345° |
| 2026-05-01 13:16 | 40.63662 | 12.80659 | 36266 ft | 402 kts | 346° |
| 2026-05-01 13:17 | 40.74679 | 12.77908 | 36250 ft | 403 kts | 345° |
| 2026-05-01 13:18 | 40.82947 | 12.75853 | 36239 ft | 402 kts | 346° |
| 2026-05-01 13:18 | 40.88440 | 12.74491 | 36262 ft | 401 kts | 346° |
| 2026-05-01 13:19 | 40.93921 | 12.73116 | 36254 ft | 401 kts | 346° |
| 2026-05-01 13:20 | 41.02096 | 12.71069 | 36249 ft | 400 kts | 346° |
| 2026-05-01 13:20 | 41.07569 | 12.69697 | 36266 ft | 400 kts | 347° |
| 2026-05-01 13:21 | 41.15776 | 12.67626 | 36250 ft | 400 kts | 347° |
| 2026-05-01 13:21 | 41.21244 | 12.66242 | 36244 ft | 400 kts | 347° |
| 2026-05-01 13:22 | 41.26710 | 12.64857 | 36239 ft | 400 kts | 347° |
| 2026-05-01 13:22 | 41.32179 | 12.63480 | 36243 ft | 400 kts | 347° |
| 2026-05-01 13:23 | 41.37635 | 12.62097 | 36238 ft | 399 kts | 347° |
| 2026-05-01 13:23 | 41.43078 | 12.60714 | 36230 ft | 399 kts | 347° |
| 2026-05-01 13:24 | 41.48527 | 12.59326 | 36224 ft | 398 kts | 347° |
| 2026-05-01 13:25 | 41.55812 | 12.57467 | 36211 ft | 399 kts | 348° |
| 2026-05-01 13:25 | 41.61265 | 12.56076 | 36212 ft | 399 kts | 348° |
| 2026-05-01 13:26 | 41.66690 | 12.54689 | 36208 ft | 399 kts | 348° |
| 2026-05-01 13:26 | 41.72185 | 12.53282 | 36213 ft | 400 kts | 348° |
| 2026-05-01 13:27 | 41.77617 | 12.51885 | 36201 ft | 400 kts | 348° |
| 2026-05-01 13:27 | 41.85833 | 12.49764 | 36201 ft | 401 kts | 348° |
| 2026-05-01 13:28 | 41.94059 | 12.47641 | 36218 ft | 401 kts | 349° |
| 2026-05-01 13:29 | 42.05037 | 12.44809 | 36211 ft | 402 kts | 349° |
| 2026-05-01 13:31 | 42.21502 | 12.40529 | 36176 ft | 401 kts | 349° |
| 2026-05-01 13:32 | 42.35191 | 12.36952 | 36225 ft | 400 kts | 349° |
| 2026-05-01 13:33 | 42.48821 | 12.33376 | 36254 ft | 398 kts | 350° |
| 2026-05-01 13:34 | 42.59686 | 12.30507 | 36273 ft | 397 kts | 351° |
| 2026-05-01 13:35 | 42.67801 | 12.28362 | 36278 ft | 395 kts | 351° |
| 2026-05-01 13:36 | 42.75891 | 12.26219 | 36282 ft | 394 kts | 351° |
| 2026-05-01 13:36 | 42.83957 | 12.24067 | 36292 ft | 393 kts | 351° |
| 2026-05-01 13:37 | 42.89315 | 12.22652 | 36301 ft | 392 kts | 351° |
| 2026-05-01 13:37 | 42.94657 | 12.21238 | 36305 ft | 391 kts | 351° |
| 2026-05-01 13:38 | 43.02659 | 12.19092 | 36306 ft | 390 kts | 351° |
| 2026-05-01 13:39 | 43.07992 | 12.17659 | 36312 ft | 390 kts | 351° |
| 2026-05-01 13:39 | 43.13317 | 12.16200 | 36319 ft | 390 kts | 351° |
| 2026-05-01 13:40 | 43.18641 | 12.14723 | 36309 ft | 390 kts | 351° |
| 2026-05-01 13:40 | 43.23936 | 12.13259 | 36310 ft | 391 kts | 351° |
| 2026-05-01 13:41 | 43.29270 | 12.11784 | 36319 ft | 391 kts | 351° |
| 2026-05-01 13:41 | 43.34603 | 12.10303 | 36324 ft | 391 kts | 351° |
| 2026-05-01 13:42 | 43.39936 | 12.08819 | 36336 ft | 391 kts | 352° |
| 2026-05-01 13:42 | 43.45267 | 12.07344 | 36342 ft | 391 kts | 352° |
| 2026-05-01 13:43 | 43.50603 | 12.05861 | 36341 ft | 391 kts | 352° |
| 2026-05-01 13:43 | 43.55937 | 12.04368 | 36348 ft | 391 kts | 352° |
| 2026-05-01 13:44 | 43.61278 | 12.02868 | 36301 ft | 392 kts | 351° |
| 2026-05-01 13:44 | 43.66635 | 12.01363 | 36310 ft | 393 kts | 351° |
| 2026-05-01 13:45 | 43.72003 | 11.99854 | 36331 ft | 394 kts | 351° |
| 2026-05-01 13:45 | 43.77390 | 11.98339 | 36346 ft | 395 kts | 351° |
| 2026-05-01 13:46 | 43.82784 | 11.96819 | 36326 ft | 397 kts | 351° |
| 2026-05-01 13:46 | 43.88203 | 11.95303 | 36334 ft | 398 kts | 351° |
| 2026-05-01 13:47 | 43.93644 | 11.93766 | 36343 ft | 399 kts | 351° |
| 2026-05-01 13:47 | 43.99089 | 11.92222 | 36344 ft | 400 kts | 351° |
| 2026-05-01 13:48 | 44.04556 | 11.90664 | 36355 ft | 401 kts | 350° |
| 2026-05-01 13:48 | 44.07276 | 11.89860 | 36733 ft | 398 kts | 350° |
| 2026-05-01 13:48 | 44.09971 | 11.89072 | 37121 ft | 394 kts | 350° |
| 2026-05-01 13:49 | 44.15363 | 11.87547 | 36545 ft | 397 kts | 351° |
| 2026-05-01 13:49 | 44.18067 | 11.86793 | 36347 ft | 398 kts | 351° |
| 2026-05-01 13:49 | 44.20797 | 11.86027 | 36356 ft | 402 kts | 351° |
| 2026-05-01 13:50 | 44.26295 | 11.84467 | 36362 ft | 404 kts | 351° |
| 2026-05-01 13:50 | 44.31816 | 11.82884 | 36368 ft | 405 kts | 351° |
| 2026-05-01 13:51 | 44.37329 | 11.81292 | 36366 ft | 405 kts | 351° |
| 2026-05-01 13:51 | 44.42859 | 11.79697 | 36368 ft | 406 kts | 351° |
| 2026-05-01 13:52 | 44.48404 | 11.78105 | 36368 ft | 407 kts | 351° |
| 2026-05-01 13:52 | 44.53952 | 11.76505 | 36376 ft | 407 kts | 351° |
| 2026-05-01 13:53 | 44.59504 | 11.74899 | 36356 ft | 408 kts | 351° |
| 2026-05-01 13:53 | 44.67859 | 11.72480 | 36369 ft | 409 kts | 350° |
| 2026-05-01 13:54 | 44.73434 | 11.70859 | 36372 ft | 410 kts | 350° |
| 2026-05-01 13:54 | 44.79021 | 11.69230 | 36379 ft | 410 kts | 351° |
| 2026-05-01 13:55 | 44.84610 | 11.67597 | 36379 ft | 410 kts | 351° |
| 2026-05-01 13:55 | 44.90198 | 11.65960 | 36382 ft | 411 kts | 351° |
| 2026-05-01 13:56 | 44.95795 | 11.64331 | 36380 ft | 411 kts | 351° |
| 2026-05-01 13:56 | 45.01395 | 11.62686 | 36381 ft | 411 kts | 351° |
| 2026-05-01 13:57 | 45.06048 | 11.61307 | 36382 ft | 411 kts | 351° |
| 2026-05-01 13:57 | 45.12601 | 11.59372 | 36387 ft | 411 kts | 351° |
| 2026-05-01 13:58 | 45.18206 | 11.57712 | 36365 ft | 412 kts | 350° |
| 2026-05-01 13:58 | 45.23818 | 11.56054 | 36369 ft | 412 kts | 350° |
| 2026-05-01 13:59 | 45.29439 | 11.54395 | 36376 ft | 413 kts | 350° |
| 2026-05-01 13:59 | 45.35062 | 11.52724 | 36379 ft | 413 kts | 350° |
| 2026-05-01 14:00 | 45.40688 | 11.51048 | 36380 ft | 413 kts | 350° |
| 2026-05-01 14:00 | 45.46313 | 11.49367 | 36381 ft | 413 kts | 350° |
| 2026-05-01 14:01 | 45.51948 | 11.47678 | 36378 ft | 414 kts | 350° |
| 2026-05-01 14:01 | 45.57585 | 11.45989 | 36373 ft | 414 kts | 350° |
| 2026-05-01 14:02 | 45.63226 | 11.44304 | 36361 ft | 414 kts | 350° |
| 2026-05-01 14:02 | 45.68871 | 11.42605 | 36360 ft | 415 kts | 350° |
| 2026-05-01 14:03 | 45.74528 | 11.40900 | 36364 ft | 416 kts | 350° |
| 2026-05-01 14:03 | 45.80192 | 11.39192 | 36366 ft | 416 kts | 350° |
| 2026-05-01 14:04 | 45.85849 | 11.37470 | 36358 ft | 416 kts | 350° |
| 2026-05-01 14:04 | 45.90560 | 11.36039 | 36363 ft | 417 kts | 350° |
| 2026-05-01 14:05 | 45.97194 | 11.34033 | 36353 ft | 417 kts | 350° |
| 2026-05-01 14:05 | 46.02870 | 11.32306 | 36345 ft | 417 kts | 350° |
| 2026-05-01 14:06 | 46.08549 | 11.30565 | 36344 ft | 417 kts | 350° |
| 2026-05-01 14:06 | 46.14232 | 11.28823 | 36333 ft | 418 kts | 350° |
| 2026-05-01 14:07 | 46.18964 | 11.27369 | 36321 ft | 418 kts | 350° |
| 2026-05-01 14:08 | 46.27494 | 11.24734 | 36372 ft | 418 kts | 350° |
| 2026-05-01 14:08 | 46.33185 | 11.22979 | 36384 ft | 419 kts | 350° |
| 2026-05-01 14:09 | 46.38891 | 11.21224 | 36383 ft | 419 kts | 350° |
| 2026-05-01 14:09 | 46.44598 | 11.19464 | 36290 ft | 419 kts | 350° |
| 2026-05-01 14:10 | 46.50313 | 11.17693 | 36302 ft | 420 kts | 350° |
| 2026-05-01 14:10 | 46.56034 | 11.15917 | 36305 ft | 420 kts | 350° |
| 2026-05-01 14:11 | 46.61752 | 11.14132 | 36310 ft | 420 kts | 350° |
| 2026-05-01 14:11 | 46.70331 | 11.11449 | 36306 ft | 420 kts | 350° |
| 2026-05-01 14:12 | 46.76053 | 11.09662 | 36313 ft | 421 kts | 350° |
| 2026-05-01 14:12 | 46.81782 | 11.07873 | 36309 ft | 421 kts | 350° |
| 2026-05-01 14:13 | 46.87439 | 11.05613 | 36297 ft | 424 kts | 338° |
| 2026-05-01 14:13 | 46.92803 | 11.01998 | 36307 ft | 425 kts | 338° |
| 2026-05-01 14:14 | 46.98186 | 10.98417 | 36307 ft | 425 kts | 338° |
| 2026-05-01 14:14 | 47.03594 | 10.94913 | 36317 ft | 425 kts | 338° |
| 2026-05-01 14:15 | 47.09003 | 10.91396 | 36313 ft | 425 kts | 338° |
| 2026-05-01 14:15 | 47.14402 | 10.87847 | 36316 ft | 425 kts | 338° |
| 2026-05-01 14:16 | 47.19798 | 10.84292 | 36314 ft | 425 kts | 338° |
| 2026-05-01 14:16 | 47.25196 | 10.80743 | 36282 ft | 425 kts | 338° |
| 2026-05-01 14:17 | 47.30593 | 10.77185 | 36301 ft | 425 kts | 338° |
| 2026-05-01 14:17 | 47.35992 | 10.73608 | 36304 ft | 426 kts | 338° |
| 2026-05-01 14:18 | 47.41416 | 10.70081 | 36320 ft | 426 kts | 339° |
| 2026-05-01 14:18 | 47.45987 | 10.67397 | 36323 ft | 425 kts | 341° |
| 2026-05-01 14:19 | 47.52361 | 10.63811 | 36328 ft | 425 kts | 341° |
| 2026-05-01 14:19 | 47.57876 | 10.60635 | 36329 ft | 426 kts | 340° |
| 2026-05-01 14:20 | 47.66134 | 10.55767 | 36334 ft | 426 kts | 340° |
| 2026-05-01 14:21 | 47.71641 | 10.52512 | 36318 ft | 426 kts | 340° |
| 2026-05-01 14:21 | 47.77155 | 10.49257 | 36326 ft | 427 kts | 340° |
| 2026-05-01 14:22 | 47.85426 | 10.44351 | 36337 ft | 427 kts | 340° |
| 2026-05-01 14:22 | 47.90947 | 10.41078 | 36338 ft | 427 kts | 340° |
| 2026-05-01 14:23 | 47.96467 | 10.37797 | 36333 ft | 427 kts | 340° |
| 2026-05-01 14:23 | 48.01986 | 10.34506 | 36335 ft | 427 kts | 340° |
| 2026-05-01 14:24 | 48.07507 | 10.31197 | 36320 ft | 427 kts | 340° |
| 2026-05-01 14:24 | 48.13029 | 10.27885 | 36308 ft | 427 kts | 339° |
| 2026-05-01 14:25 | 48.18547 | 10.24571 | 36319 ft | 428 kts | 338° |
| 2026-05-01 14:25 | 48.23601 | 10.19868 | 36333 ft | 430 kts | 322° |
| 2026-05-01 14:26 | 48.30583 | 10.11381 | 36342 ft | 431 kts | 323° |
| 2026-05-01 14:27 | 48.35247 | 10.05729 | 36343 ft | 431 kts | 323° |
| 2026-05-01 14:27 | 48.39908 | 10.00063 | 36343 ft | 431 kts | 322° |
| 2026-05-01 14:28 | 48.46888 | 9.91519 | 36333 ft | 431 kts | 322° |
| 2026-05-01 14:28 | 48.51528 | 9.85825 | 36017 ft | 428 kts | 322° |
| 2026-05-01 14:29 | 48.53837 | 9.82996 | 35363 ft | 428 kts | 322° |
| 2026-05-01 14:29 | 48.56150 | 9.80159 | 34702 ft | 429 kts | 323° |
| 2026-05-01 14:30 | 48.63021 | 9.71594 | 32921 ft | 423 kts | 321° |